Darstellungsparameter: Aktuell verwendete Einstellungen:
Skalierung der Graphiken ... ?
xyx+y,   Skalierungsfaktor:      Skalierung: Modus: x, Faktor: 1
Darstellungszeitraum ... ?
Vom - - bis: - -   Zeitraum: 07.05.2021 - 07.05.2021
Min/Max/Avg-Anzeige ... ?
Zeige MMA aktuell
Zeige MMA Monat
Zeige MMA alles
Zeige --A aktuell
Zeige --A Monat
Zeige --A alles
Keine MMA-Anzeige
MMA:
Keine MMA-Graphiken
MMA-Basis: 07.05.2021 - 07.05.2021
Quicknavigation für Darstellung... ?
Tage:      1T, 2T, 3T, 5T -1T -2T -3T -5T +1T +2T +3T +5T
Wochen: 1W, 2W, 3W -1W -2W -3W +1W +2W +3W
Monate: 1M, 3M, 6M -1M -3M -6M +1M +3M +6M
Jahre:    1J, 3J, 5J, 10J -1J -3J -5J -10J +1J +3J +5J +10J
Nutze für die Darstellung ... ?
Originaldaten oder Mittelwerte auf ...
Stundenbasis Tagesbasis Wochenbasis
Monatsbasis Jahresbasis      Datenbasis: Original-Daten
Darstellen als:
Statistik (Auto) Statistik J:M      Darstellung:

Der gewünschte Datumsbereich war nicht gültig/verfügbar und wurde korrigiert....
Das angegebene Enddatum (14.09.2026 23:59:59) liegt in der Zukunft.
Das angegebene Startdatum (15.03.2026 00:00:00) liegt in der Zukunft.


Zur Graphik,    zurück zur Übersicht aller Sensoren.
 
Tabellarische Datenbersicht: ?
 
Sensor: Nr:Datum:Temp:Feuchte:Taupunkt:
Aussen-T/F 1 07-05-2021 02:00:00 6.5 C 95 % 5.76 C
2 07-05-2021 02:05:00 6.5 C 95 % 5.76 C
3 07-05-2021 02:10:00 6.4 C 95 % 5.66 C
4 07-05-2021 02:15:00 6.4 C 95 % 5.66 C
5 07-05-2021 02:20:00 6.4 C 95 % 5.66 C
6 07-05-2021 02:25:00 6.4 C 95 % 5.66 C
7 07-05-2021 02:30:00 6.4 C 95 % 5.66 C
8 07-05-2021 02:35:00 6.4 C 95 % 5.66 C
9 07-05-2021 02:40:00 6.4 C 95 % 5.66 C
10 07-05-2021 02:45:00 6.4 C 95 % 5.66 C
11 07-05-2021 02:50:00 6.3 C 95 % 5.56 C
12 07-05-2021 02:55:00 6.1 C 94 % 5.21 C
13 07-05-2021 03:00:00 6.1 C 94 % 5.21 C
14 07-05-2021 03:05:00 6 C 94 % 5.11 C
15 07-05-2021 03:10:00 5.9 C 94 % 5.01 C
16 07-05-2021 03:15:00 5.9 C 94 % 5.01 C
17 07-05-2021 03:20:00 5.9 C 94 % 5.01 C
18 07-05-2021 03:25:00 5.9 C 94 % 5.01 C
19 07-05-2021 03:30:00 5.8 C 94 % 4.91 C
20 07-05-2021 03:35:00 5.8 C 94 % 4.91 C
21 07-05-2021 03:40:00 5.7 C 94 % 4.81 C
22 07-05-2021 03:45:00 5.7 C 94 % 4.81 C
23 07-05-2021 03:50:00 5.5 C 94 % 4.61 C
24 07-05-2021 03:55:00 5.4 C 94 % 4.51 C
25 07-05-2021 04:00:00 5.3 C 94 % 4.41 C
Sensor: Nr:Datum:Temp:Feuchte:Taupunkt:
Aussen-T/F 26 07-05-2021 04:05:00 5.1 C 94 % 4.22 C
27 07-05-2021 04:10:00 4.9 C 94 % 4.02 C
28 07-05-2021 04:15:00 4.7 C 94 % 3.82 C
29 07-05-2021 04:20:00 4.6 C 94 % 3.72 C
30 07-05-2021 04:25:00 4.5 C 94 % 3.62 C
31 07-05-2021 04:30:00 4.4 C 94 % 3.52 C
32 07-05-2021 04:35:00 4.4 C 94 % 3.52 C
33 07-05-2021 04:40:00 4.4 C 94 % 3.52 C
34 07-05-2021 04:45:00 4.4 C 94 % 3.52 C
35 07-05-2021 04:50:00 4.4 C 95 % 3.67 C
36 07-05-2021 04:55:00 4.4 C 95 % 3.67 C
37 07-05-2021 05:00:00 4.5 C 95 % 3.77 C
38 07-05-2021 05:05:00 4.6 C 95 % 3.87 C
39 07-05-2021 05:10:00 4.7 C 95 % 3.97 C
40 07-05-2021 05:15:00 4.8 C 95 % 4.07 C
41 07-05-2021 05:20:00 4.8 C 95 % 4.07 C
42 07-05-2021 05:25:00 4.9 C 96 % 4.32 C
43 07-05-2021 05:30:00 4.9 C 95 % 4.17 C
44 07-05-2021 05:35:00 4.9 C 95 % 4.17 C
45 07-05-2021 05:40:00 4.8 C 95 % 4.07 C
46 07-05-2021 05:45:00 4.7 C 95 % 3.97 C
47 07-05-2021 05:50:00 4.6 C 95 % 3.87 C
48 07-05-2021 05:55:00 4.4 C 95 % 3.67 C
49 07-05-2021 06:00:00 4.3 C 95 % 3.57 C
50 07-05-2021 06:05:00 4.2 C 95 % 3.47 C
Sensor: Nr:Datum:Temp:Feuchte:Taupunkt:
Aussen-T/F 51 07-05-2021 06:10:00 4.1 C 95 % 3.37 C
52 07-05-2021 06:15:00 3.9 C 95 % 3.17 C
53 07-05-2021 06:20:00 3.8 C 95 % 3.07 C
54 07-05-2021 06:25:00 3.8 C 95 % 3.07 C
55 07-05-2021 06:30:00 3.7 C 95 % 2.98 C
56 07-05-2021 06:35:00 3.7 C 95 % 2.98 C
57 07-05-2021 06:40:00 3.6 C 95 % 2.88 C
58 07-05-2021 06:45:00 3.6 C 95 % 2.88 C
59 07-05-2021 06:50:00 3.6 C 95 % 2.88 C
60 07-05-2021 06:55:00 3.6 C 95 % 2.88 C
61 07-05-2021 07:00:00 3.5 C 95 % 2.78 C
62 07-05-2021 07:05:00 3.5 C 95 % 2.78 C
63 07-05-2021 07:10:00 3.5 C 95 % 2.78 C
64 07-05-2021 07:15:00 3.6 C 95 % 2.88 C
65 07-05-2021 07:20:00 3.6 C 95 % 2.88 C
66 07-05-2021 07:25:00 3.6 C 95 % 2.88 C
67 07-05-2021 07:30:00 3.6 C 95 % 2.88 C
68 07-05-2021 07:35:00 3.7 C 95 % 2.98 C
69 07-05-2021 07:40:00 3.8 C 96 % 3.22 C
70 07-05-2021 07:45:00 3.9 C 96 % 3.32 C
71 07-05-2021 07:50:00 4.1 C 96 % 3.52 C
72 07-05-2021 07:55:00 4.1 C 96 % 3.52 C
73 07-05-2021 08:00:00 4.2 C 96 % 3.62 C
74 07-05-2021 08:05:00 4.2 C 96 % 3.62 C
75 07-05-2021 08:10:00 4.3 C 96 % 3.72 C
Sensor: Nr:Datum:Temp:Feuchte:Taupunkt:
Aussen-T/F 76 07-05-2021 08:15:00 4.4 C 96 % 3.82 C
77 07-05-2021 08:20:00 4.4 C 95 % 3.67 C
78 07-05-2021 08:25:00 4.5 C 96 % 3.92 C
79 07-05-2021 08:30:00 4.6 C 96 % 4.02 C
80 07-05-2021 08:35:00 4.7 C 96 % 4.12 C
81 07-05-2021 08:40:00 4.8 C 96 % 4.22 C
82 07-05-2021 08:45:00 4.9 C 96 % 4.32 C
83 07-05-2021 08:50:00 5.1 C 95 % 4.37 C
84 07-05-2021 08:55:00 5.2 C 95 % 4.47 C
85 07-05-2021 09:00:00 5.2 C 95 % 4.47 C
86 07-05-2021 09:05:00 5.3 C 94 % 4.41 C
87 07-05-2021 09:10:00 5.4 C 93 % 4.36 C
88 07-05-2021 09:15:00 5.7 C 93 % 4.66 C
89 07-05-2021 09:20:00 5.9 C 92 % 4.7 C
90 07-05-2021 09:25:00 6.2 C 91 % 4.84 C
91 07-05-2021 09:30:00 6.4 C 90 % 4.88 C
92 07-05-2021 09:35:00 6.6 C 90 % 5.08 C
93 07-05-2021 09:40:00 6.8 C 89 % 5.12 C
94 07-05-2021 09:45:00 7.1 C 88 % 5.25 C
95 07-05-2021 09:50:00 7.2 C 89 % 5.51 C
96 07-05-2021 09:55:00 7.4 C 87 % 5.38 C
97 07-05-2021 10:00:00 7.5 C 86 % 5.31 C
98 07-05-2021 10:05:00 7.6 C 84 % 5.07 C
99 07-05-2021 10:10:00 7.8 C 84 % 5.27 C
100 07-05-2021 10:15:00 8 C 83 % 5.29 C
Sensor: Nr:Datum:Temp:Feuchte:Taupunkt:
Aussen-T/F 101 07-05-2021 10:20:00 8.2 C 82 % 5.32 C
102 07-05-2021 10:25:00 8.3 C 80 % 5.06 C
103 07-05-2021 10:30:00 8.3 C 80 % 5.06 C
104 07-05-2021 10:35:00 8.1 C 80 % 4.86 C
105 07-05-2021 10:40:00 7.4 C 81 % 4.36 C
106 07-05-2021 10:45:00 6.8 C 84 % 4.29 C
107 07-05-2021 10:50:00 6.4 C 86 % 4.23 C
108 07-05-2021 10:55:00 6.3 C 88 % 4.46 C
109 07-05-2021 11:00:00 6.3 C 88 % 4.46 C
110 07-05-2021 11:05:00 6.4 C 89 % 4.72 C
111 07-05-2021 11:10:00 6.7 C 90 % 5.18 C
112 07-05-2021 11:15:00 6.9 C 87 % 4.89 C
113 07-05-2021 11:20:00 6.9 C 85 % 4.56 C
114 07-05-2021 11:25:00 6.9 C 84 % 4.39 C
115 07-05-2021 11:30:00 7 C 83 % 4.32 C
116 07-05-2021 11:35:00 7.1 C 83 % 4.41 C
117 07-05-2021 11:40:00 7.2 C 83 % 4.51 C
118 07-05-2021 11:45:00 7.2 C 82 % 4.34 C
119 07-05-2021 11:50:00 7.2 C 81 % 4.16 C
120 07-05-2021 11:55:00 7.4 C 81 % 4.36 C
121 07-05-2021 12:00:00 7.5 C 79 % 4.1 C
122 07-05-2021 12:05:00 7.4 C 79 % 4 C
123 07-05-2021 12:10:00 7.4 C 79 % 4 C
124 07-05-2021 12:15:00 7.4 C 80 % 4.18 C
125 07-05-2021 12:20:00 7.4 C 79 % 4 C
Sensor: Nr:Datum:Temp:Feuchte:Taupunkt:
Aussen-T/F 126 07-05-2021 12:25:00 7.4 C 81 % 4.36 C
127 07-05-2021 12:30:00 7.4 C 80 % 4.18 C
128 07-05-2021 12:35:00 7.4 C 80 % 4.18 C
129 07-05-2021 12:40:00 7.4 C 81 % 4.36 C
130 07-05-2021 12:45:00 7.3 C 79 % 3.91 C
131 07-05-2021 12:50:00 7.3 C 81 % 4.26 C
132 07-05-2021 12:55:00 7.2 C 81 % 4.16 C
133 07-05-2021 13:00:00 7.3 C 80 % 4.09 C
134 07-05-2021 13:05:00 7.3 C 80 % 4.09 C
135 07-05-2021 13:10:00 7.3 C 79 % 3.91 C
136 07-05-2021 13:15:00 7.2 C 78 % 3.63 C
137 07-05-2021 13:20:00 7.2 C 79 % 3.81 C
138 07-05-2021 13:25:00 7.2 C 79 % 3.81 C
139 07-05-2021 13:30:00 7.2 C 80 % 3.99 C
140 07-05-2021 13:35:00 7.3 C 80 % 4.09 C
141 07-05-2021 13:40:00 7.5 C 78 % 3.92 C
142 07-05-2021 13:45:00 7.6 C 77 % 3.83 C
143 07-05-2021 13:50:00 7.7 C 75 % 3.56 C
144 07-05-2021 13:55:00 7.7 C 74 % 3.37 C
145 07-05-2021 14:00:00 7.8 C 74 % 3.46 C
146 07-05-2021 14:05:00 8.1 C 74 % 3.75 C
147 07-05-2021 14:10:00 8.4 C 72 % 3.65 C
148 07-05-2021 14:15:00 8.5 C 71 % 3.55 C
149 07-05-2021 14:20:00 8.6 C 71 % 3.65 C
150 07-05-2021 14:25:00 8.7 C 69 % 3.34 C
Sensor: Nr:Datum:Temp:Feuchte:Taupunkt:
Aussen-T/F 151 07-05-2021 14:30:00 8.9 C 68 % 3.32 C
152 07-05-2021 14:35:00 9.2 C 65 % 2.97 C
153 07-05-2021 14:40:00 9.5 C 66 % 3.47 C
154 07-05-2021 14:45:00 9.7 C 65 % 3.45 C
155 07-05-2021 14:50:00 9.7 C 64 % 3.23 C
156 07-05-2021 14:55:00 9.5 C 65 % 3.26 C
157 07-05-2021 15:00:00 9.4 C 67 % 3.59 C
158 07-05-2021 15:05:00 9.5 C 67 % 3.69 C
159 07-05-2021 15:10:00 9.5 C 66 % 3.47 C
160 07-05-2021 15:15:00 9.5 C 66 % 3.47 C
161 07-05-2021 15:20:00 9.6 C 61 % 2.46 C
162 07-05-2021 15:25:00 9.7 C 63 % 3.01 C
163 07-05-2021 15:30:00 9.8 C 63 % 3.1 C
164 07-05-2021 15:35:00 9.9 C 62 % 2.97 C
165 07-05-2021 15:40:00 10.1 C 60 % 2.7 C
166 07-05-2021 15:45:00 10.2 C 60 % 2.79 C
167 07-05-2021 15:50:00 10.6 C 62 % 3.63 C

Legende:
   Min
   Max


Maximal/Minimal-Werte vom 07.05.2021 - 07.05.2021

Sensor Min Max Avg
Temp
(Aussen-T/F)
3.5 °C
07-05-2021  07:00:00
10.6 °C
07-05-2021  15:50:00
6.25 °C
Feuchte
(Aussen-T/F)
60 %
07-05-2021  15:40:00
96 %
07-05-2021  05:25:00
86.8 %
Taupunkt
(Aussen-T/F)
2.46 C
07-05-2021  15:20:00
5.76 C
07-05-2021  02:00:00
4.07 C

Die Daten stammen von einer Davis Vantage Pro 2 Wetter-Station und werden unter Linux mit der Software wview2wettercgi und aufbereitet. Alle Angaben erfolgen ohne Gewähr für ihre Vollständigkeit oder Richtigkeit.
Kontakt: Rainer Krienke krienke@uni-koblenz.de . Meine Webseiten an der Uni Koblenz oder privat.
Version: $Revision: 0.78 $